Tiempo atmosférico en la estación meteorológica de Almadén, Ciudad Real (535 m.)



Fecha
DESCASC
Temp. máxima en grados centígrados (hora)
DESCASC
Temp. mínima en grados centígrados (hora)
DESCASC
Temp. media en grados centígrados
DESCASC
Racha de viento máxima en m/sg (hora)
DESCASC
Velocidad máxima media en intervalos de 10 minutos(hora)
DESCASC
Precipitaciones diarias en mm
DESCASC
Precipitaciones de 00:00 a 06:00 en mm
DESCASC
Precipitaciones de 06:00 a 12:00 en mm
DESCASC
Precipitaciones de 12:00 a 18:00 en mm
DESCASC
Precipitaciones de 18:00 a 24:00 en mm
DESCASC
19-04-2018 26.4 (17:50) 11.8 (08:00) 19.1 5.83 (15:20) 3.06 (14:00) 0 0 0 0 0
18-04-2018 27.6 (17:40) 11.7 (06:50) 19.7 5 (16:10) 3.06 (16:10) 0 0 0 0 0
17-04-2018 24.4 (18:30) 6.9 (07:20) 15.6 4.44 (13:40) 2.78 (17:20) 0 0 0 0 0
16-04-2018 16.2 (16:30) 7.3 (07:50) 11.8 8.89 (00:20) 3.61 (04:20) 3.6 3.6 0 0 0
15-04-2018 15.7 (17:30) 8.7 (00:00) 12.2 11.94 (21:50) 7.5 (21:30) 2.4 0 0 0 2.4
14-04-2018 19 (18:00) 5.1 (00:00) 12 5.28 (18:00) 2.5 (17:20) 0 0 0 0 0
13-04-2018 17.2 (15:40) 5 (00:00) 11.1 5.83 (10:50) 3.33 (07:30) 0 0 0 0 0
12-04-2018 11.1 (12:30) 6.7 (00:00) 8.9 12.5 (17:20) 6.67 (17:40) 10 0 0 7.2 2.8
11-04-2018 12.4 (18:00) 4.1 (00:00) 8.2 13.89 (16:10) 6.39 (14:00) 0.8 0.2 0.6 0 0
10-04-2018 8.8 (15:20) 5.9 (00:00) 7.4 20.83 (14:40) 11.67 (14:40) 13.2 0 3 9.8 0.4
09-04-2018 9 (13:50) 4.5 (00:00) 6.8 12.5 (18:00) 6.11 (18:00) 3.8 0.6 0.6 1.2 1.4
08-04-2018 15 (18:20) 6.4 (00:00) 10.7 11.94 (23:00) 6.39 (23:40) 7.6 0.6 0.4 0.2 6.4
07-04-2018 14.4 (16:30) 7.7 (00:00) 11 10.28 (17:00) 5 (17:00) 5.4 0.4 4 0.8 0.2
06-04-2018 21.3 (15:10) 10.3 (00:00) 15.8 14.72 (17:50) 8.61 (19:00) 0 0 0 0 0
05-04-2018 22.1 (16:00) 6.1 (00:00) 14.1 5.83 (14:30) 3.06 (16:00) 0 0 0 0 0
04-04-2018 16.8 (17:20) 8.7 (00:00) 12.7 11.67 (10:30) 5.56 (18:40) 0 0 0 0 0
03-04-2018 18 (16:20) 10.6 (00:00) 14.3 16.11 (18:50) 8.61 (18:50) 0 0 0 0 0
02-04-2018 20.2 (16:30) 10 (00:00) 15.1 13.06 (17:50) 6.94 (14:00) 0 0 0 0 0
01-04-2018 21.4 (16:50) 4.8 (00:00) 13.1 5.28 (10:50) 3.89 (18:50) 0 0 0 0 0
31-03-2018 14.2 (18:30) 5.3 (00:00) 9.8 13.33 (00:30) 6.67 (00:20) 0.2 0 0 0.2 0
30-03-2018 12.5 (18:00) 5.5 (00:00) 9 17.78 (21:30) 7.78 (23:20) 1.4 0 0 0 1.4
29-03-2018 14.6 (17:00) 8.4 (00:00) 11.5 10.28 (15:40) 4.72 (16:50) 0 0 0 0 0
28-03-2018 21.3 (16:30) 7.2 (00:00) 14.2 7.78 (23:59) 3.33 (17:40) 0 0 0 0 0
27-03-2018 20.7 (17:30) 5.2 (00:00) 13 4.72 (14:10) 2.78 (12:00) 0 0 0 0 0
26-03-2018 17 (17:10) 4.2 (00:00) 10.6 6.11 (17:10) 2.5 (19:30) 0 0 0 0 0
25-03-2018 13.4 (18:40) 4.7 (00:00) 9 9.72 (00:50) 4.44 (01:00) 3.2 0.6 2.4 0.2 0
24-03-2018 12.2 (16:20) 4.2 (00:00) 8.2 16.94 (02:10) 8.61 (02:10) 3 3 0 0 0
23-03-2018 10.8 (23:20) 3.8 (00:00) 7.3 16.11 (23:30) 8.89 (23:30) 6.2 0 0 4.6 1.6

Gráficas

Temp. máximas Temp. mínimas Temp. medias Precipitaciones Rachas de viento máximas Velocidades máximas media en intervalos de 10 minutos

Datos horarios

Fecha y hora oficial Temperatura (ºC) Velocidad del viento (km/h) Dirección del viento Racha (km/h) Dirección de racha Precipitación (mm) Presión (hPa) Tendencia (hPa) Humedad (%)
2018-04-21 23:00:00 18 5 Norte 20 Norte 0 -- -- 64
2018-04-21 22:00:00 18.3 5 Nordeste 21 Norte 0 -- -- 61
2018-04-21 21:00:00 18.1 7 Norte 18 Norte 0 -- -- 64
2018-04-21 20:00:00 18.6 3 Norte 20 Norte 0 -- -- 64
2018-04-21 19:00:00 19.2 7 Norte 22 Norte 0 -- -- 63
2018-04-21 18:00:00 20 5 Noroeste 19 Oeste 0 -- -- 59
2018-04-21 17:00:00 22.4 4 Noroeste 16 Oeste 0 -- -- 49
2018-04-21 16:00:00 21.8 5 Nordeste 18 Este 0 -- -- 49
2018-04-21 15:00:00 20.1 8 Este 19 Este 0 -- -- 53
2018-04-21 14:00:00 19.8 8 Este 25 Este 0 -- -- 55
2018-04-21 13:00:00 17.7 10 Este 25 Este 0 -- -- 58
2018-04-21 12:00:00 16 6 Sudeste 33 Nordeste 0 -- -- 68
2018-04-21 11:00:00 13.6 13 Nordeste 25 Nordeste 0 -- -- 75
2018-04-21 10:00:00 12.6 10 Este 26 Nordeste 0 -- -- 79
2018-04-21 09:00:00 12 6 Nordeste 14 Nordeste 0 -- -- 81
2018-04-21 08:00:00 11.9 10 Nordeste 17 Nordeste 0 -- -- 82
2018-04-21 07:00:00 12.6 4 Sur 16 Este 0 -- -- 79
2018-04-21 06:00:00 13.1 2 Nordeste 25 Este 0 -- -- 75
2018-04-21 05:00:00 13.4 12 Este 22 Nordeste 0 -- -- 74
2018-04-21 04:00:00 14.4 9 Este 24 Este 0 -- -- 70
2018-04-21 03:00:00 15.2 10 Este 21 Sudeste 0 -- -- 71
2018-04-21 02:00:00 15.8 2 Sudeste 9 Nordeste 0 -- -- 72
2018-04-21 01:00:00 16.6 0 Calma 7 Sur 0 -- -- 71
2018-04-21 00:00:00 17 6 Sur 10 Sudoeste 0 -- -- 69
2018-04-20 23:00:00 18.1 5 Nordeste 25 Sudoeste 0 -- -- 63
2018-04-20 22:00:00 20.3 0 Calma 5 Sudoeste 0 -- -- 46
2018-04-20 21:00:00 20.5 4 Sur 12 Sur 0 -- -- 45
2018-04-20 20:00:00 22 8 Sur 15 Sur 0 -- -- 47
2018-04-20 19:00:00 24 5 Sudeste 15 Sudeste 0 -- -- 38
2018-04-20 18:00:00 25.4 5 Sudeste 23 Nordeste 0 -- -- 37
2018-04-20 17:00:00 25.3 6 Este 23 Este 0 -- -- 36
2018-04-20 16:00:00 24.1 10 Este 31 Este 0 -- -- 40
2018-04-20 15:00:00 23.3 8 Este 26 Este 0 -- -- 42
2018-04-20 14:00:00 21.9 10 Este 31 Este 0 -- -- 47
2018-04-20 13:00:00 19.8 12 Este 26 Este 0 -- -- 52
2018-04-20 12:00:00 18.2 11 Este 31 Nordeste 0 -- -- 56
2018-04-20 11:00:00 15.9 15 Este 34 Este 0 -- -- 64
2018-04-20 10:00:00 13.8 13 Este 32 Este 0 -- -- 71
2018-04-20 09:00:00 12.3 7 Este 18 Nordeste 0 -- -- 78
2018-04-20 08:00:00 11.2 6 Este 21 Este 0 -- -- 81
2018-04-20 07:00:00 11.8 12 Este 24 Este 0 -- -- 78
2018-04-20 06:00:00 12.2 12 Este 21 Este 0 -- -- 79
2018-04-20 05:00:00 13 11 Este 24 Este 0 -- -- 75
2018-04-20 04:00:00 14 5 Este 13 Este 0 -- -- 71
2018-04-20 03:00:00 15 3 Este 14 Este 0 -- -- 61
2018-04-20 02:00:00 16 5 Este 17 Este 0 -- -- 59
2018-04-20 01:00:00 16.9 7 Este 20 Este 0 -- -- 57
2018-04-20 00:00:00 17.8 8 Este 18 Este 0 -- -- 51
2018-04-19 23:00:00 19.2 0 Calma 9 Este 0 -- -- 48
2018-04-19 22:00:00 20.1 2 Sudeste 5 Sudeste 0 -- -- 45
2018-04-19 21:00:00 22 0 Calma 10 Este 0 -- -- 40
2018-04-19 20:00:00 23.2 4 Sur 14 Este 0 -- -- 37
2018-04-19 19:00:00 25.4 4 Sur 14 Sudoeste 0 -- -- 37
2018-04-19 18:00:00 26.3 6 Sudeste 17 Sur 0 -- -- 33
2018-04-19 17:00:00 25.5 4 Norte 20 Este 0 -- -- 42
2018-04-19 16:00:00 24.8 6 Este 21 Este 0 -- -- 43
2018-04-19 15:00:00 23.7 7 Nordeste 18 Nordeste 0 -- -- 41
2018-04-19 14:00:00 22.8 11 Nordeste 20 Este 0 -- -- 40
2018-04-19 13:00:00 22.5 6 Sudeste 14 Sudeste 0 -- -- 47
2018-04-19 12:00:00 20.2 4 Nordeste 10 Este 0 -- -- 52
2018-04-19 11:00:00 18.1 4 Este 14 Este 0 -- -- 52
2018-04-19 10:00:00 14.7 5 Este 9 Este 0 -- -- 67
2018-04-19 09:00:00 13.1 0 Calma 5 Este 0 -- -- 71
2018-04-19 08:00:00 11.8 3 Nordeste 8 Este 0 -- -- 77
2018-04-19 07:00:00 12.4 0 Calma 6 Sudoeste 0 -- -- 76
2018-04-19 06:00:00 13.4 0 Calma 7 Este 0 -- -- 75
2018-04-19 05:00:00 14.2 2 Sur 7 Sur 0 -- -- 71
2018-04-19 04:00:00 15 2 Sudoeste 4 Sur 0 -- -- 66
2018-04-19 03:00:00 16.2 0 Calma 9 Sudoeste 0 -- -- 60
2018-04-19 02:00:00 17.3 0 Calma 5 Sur 0 -- -- 58
2018-04-19 01:00:00 17.8 0 Calma 9 Sudoeste 0 -- -- 56
2018-04-19 00:00:00 18.4 4 Sur 9 Sudoeste 0 -- -- 61
2018-04-18 23:00:00 20.2 0 Calma 6 Nordeste 0 -- -- 51
2018-04-18 22:00:00 21.4 2 Este 6 Norte 0 -- -- 48
2018-04-18 21:00:00 23.1 3 Norte 6 Sudoeste 0 -- -- 46
2018-04-18 20:00:00 24.4 3 Sudoeste 7 Sur 0 -- -- 44
2018-04-18 19:00:00 26.3 4 Sudoeste 12 Sudoeste 0 -- -- 43
2018-04-18 18:00:00 27.1 6 Sudoeste 12 Sur 0 -- -- 40
2018-04-18 17:00:00 27.2 8 Sudoeste 18 Sudoeste 0 -- -- 41
2018-04-18 16:00:00 26.6 5 Oeste 14 Sudoeste 0 -- -- 41
2018-04-18 15:00:00 26 4 Sudoeste 11 Sudoeste 0 -- -- 37
2018-04-18 14:00:00 24.7 3 Norte 12 Nordeste 0 -- -- 39
2018-04-18 13:00:00 22.9 4 Sudeste 12 Sudeste 0 -- -- 43
2018-04-18 12:00:00 20.8 5 Nordeste 12 Este 0 -- -- 44
2018-04-18 11:00:00 18.2 4 Nordeste 10 Nordeste 0 -- -- 51
2018-04-18 10:00:00 14.3 0 Calma 6 Norte 0 -- -- 61
2018-04-18 09:00:00 13 2 Noroeste 5 Nordeste 0 -- -- 61
2018-04-18 08:00:00 11.7 0 Calma 6 Este 0 -- -- 64
2018-04-18 07:00:00 11.8 3 Este 5 Nordeste 0 -- -- 62
2018-04-18 06:00:00 12.9 0 Calma 5 Nordeste 0 -- -- 59
2018-04-18 05:00:00 13.6 0 Calma 6 Este 0 -- -- 57
2018-04-18 04:00:00 13.7 0 Calma 7 Nordeste 0 -- -- 59
2018-04-18 03:00:00 14.5 5 Nordeste 8 Nordeste 0 -- -- 56
2018-04-18 02:00:00 14.9 0 Calma 4 Este 0 -- -- 63
2018-04-18 01:00:00 15.7 0 Calma 6 Este 0 -- -- 62
2018-04-18 00:00:00 16.4 2 Este 4 Este 0 -- -- 60
2018-04-17 23:00:00 16.9 0 Calma 3 Norte 0 -- -- 54
2018-04-17 22:00:00 17.3 0 Calma 4 Norte 0 -- -- 52
2018-04-17 21:00:00 19 0 Calma 9 Oeste 0 -- -- 50
2018-04-17 20:00:00 20.9 4 Noroeste 12 Oeste 0 -- -- 44
2018-04-17 19:00:00 23.5 5 Oeste 10 Sudoeste 0 -- -- 43
2018-04-17 18:00:00 24.3 6 Sudoeste 14 Sudoeste 0 -- -- 43
2018-04-17 17:00:00 24 5 Sudoeste 15 Sudoeste 0 -- -- 40
2018-04-17 16:00:00 23.3 5 Sur 14 Sur 0 -- -- 45
2018-04-17 15:00:00 22.2 6 Oeste 15 Sur 0 -- -- 49
2018-04-17 14:00:00 20.6 6 Sudoeste 16 Este 0 -- -- 51
2018-04-17 13:00:00 19.3 4 Sudoeste 12 Este 0 -- -- 55
2018-04-17 12:00:00 16.7 5 Este 14 Nordeste 0 -- -- 57
2018-04-17 11:00:00 14.1 5 Nordeste 13 Este 0 -- -- 70
2018-04-17 10:00:00 10.7 3 Este 9 Este 0 -- -- 83
2018-04-17 09:00:00 8.8 4 Este 8 Este 0 -- -- 87
2018-04-17 08:00:00 6.9 2 Nordeste 4 Norte 0 -- -- 92
2018-04-17 07:00:00 7.2 2 Nordeste 3 Este 0 -- -- 92
2018-04-17 06:00:00 7.2 0 Calma 3 Nordeste 0 -- -- 92
2018-04-17 05:00:00 7.6 0 Calma 5 Este 0 -- -- 91
2018-04-17 04:00:00 8 0 Calma 4 Sur 0 -- -- 90
2018-04-17 03:00:00 8.9 0 Calma 3 Nordeste 0 -- -- 85
2018-04-17 02:00:00 9.6 0 Calma 2 Nordeste 0 -- -- 82
2018-04-17 01:00:00 10 0 Calma 2 Sur 0 -- -- 79
2018-04-17 00:00:00 10.6 0 Calma 3 Nordeste 0 -- -- 77
2018-04-16 23:00:00 11.2 0 Calma 2 Oeste 0 -- -- 74
2018-04-16 22:00:00 11.9 0 Calma 5 Oeste 0 -- -- 70
2018-04-16 21:00:00 13 0 Calma 8 Oeste 0 -- -- 66
2018-04-16 20:00:00 14 4 Oeste 14 Oeste 0 -- -- 60
2018-04-16 19:00:00 15 4 Noroeste 15 Oeste 0 -- -- 56
2018-04-16 18:00:00 15.4 4 Noroeste 16 Oeste 0 -- -- 55
2018-04-16 17:00:00 15.6 7 Oeste 19 Oeste 0 -- -- 56
2018-04-16 16:00:00 14.6 6 Noroeste 20 Oeste 0 -- -- 63
2018-04-16 15:00:00 14 6 Noroeste 22 Oeste 0 -- -- 59
2018-04-16 14:00:00 12.8 5 Noroeste 24 Oeste 0 -- -- 65
2018-04-16 13:00:00 12.5 9 Oeste 20 Oeste 0 -- -- 73
2018-04-16 12:00:00 10.8 5 Oeste 19 Noroeste 0 -- -- 76
2018-04-16 11:00:00 9.3 5 Oeste 16 Oeste 0 -- -- 87
2018-04-16 10:00:00 8.3 5 Oeste 16 Noroeste 0 -- -- 93
2018-04-16 09:00:00 7.3 5 Oeste 21 Oeste 0 -- -- 92
2018-04-16 08:00:00 7.3 5 Oeste 21 Oeste 0 -- -- 95
2018-04-16 07:00:00 7.6 4 Noroeste 17 Noroeste 0 -- -- 94
2018-04-16 06:00:00 7.7 5 Oeste 25 Oeste 0 -- -- 95
2018-04-16 05:00:00 8.1 10 Oeste 28 Noroeste 0 -- -- 95
2018-04-16 04:00:00 8.5 11 Noroeste 26 Oeste 0 -- -- 95
2018-04-16 03:00:00 8.1 4 Sudoeste 15 Oeste 0.2 -- -- 97
2018-04-16 02:00:00 8 9 Oeste 26 Oeste 1.6 -- -- 97
2018-04-16 01:00:00 9 4 Noroeste 32 Noroeste 1.8 -- -- 99
2018-04-16 00:00:00 9.2 8 Noroeste 39 Oeste 2.4 -- -- 97
2018-04-15 23:00:00 12.9 20 Sur 36 Sudoeste 0 -- -- 87
2018-04-15 22:00:00 13.5 19 Sudoeste 43 Sudoeste 0 -- -- 84
2018-04-15 21:00:00 14.1 17 Sudoeste 35 Sudoeste 0 -- -- 80
2018-04-15 20:00:00 14.6 13 Sudoeste 34 Sur 0 -- -- 77
2018-04-15 19:00:00 14.9 17 Sudoeste 29 Sudoeste 0 -- -- 77
2018-04-15 18:00:00 14.9 11 Sudoeste 23 Sur 0 -- -- 78
2018-04-15 17:00:00 15.1 11 Sudoeste 25 Sur 0 -- -- 74
2018-04-15 16:00:00 14.5 4 Sudoeste 22 Sudoeste 0 -- -- 76
2018-04-15 15:00:00 15.5 15 Sudoeste 24 Sur 0 -- -- 69
2018-04-15 14:00:00 13.1 15 Sudoeste 22 Sudoeste 0 -- -- 74
2018-04-15 13:00:00 12.5 13 Sudoeste 21 Sudoeste 0 -- -- 79
2018-04-15 12:00:00 11.9 9 Sudoeste 17 Sudoeste 0 -- -- 83
2018-04-15 11:00:00 11.1 8 Sudoeste 12 Sudoeste 0 -- -- 87
2018-04-15 10:00:00 9.8 4 Sudoeste 10 Oeste 0 -- -- 89
2018-04-15 09:00:00 9 5 Sur 8 Sur 0 -- -- 92
2018-04-15 08:00:00 8.7 4 Sur 7 Sur 0 -- -- 92
2018-04-15 07:00:00 9.1 2 Sudoeste 10 Oeste 0 -- -- 91
2018-04-15 06:00:00 9.8 2 Sudoeste 5 Noroeste 0 -- -- 86
2018-04-15 05:00:00 9.8 0 Calma 5 Oeste 0 -- -- 84
2018-04-15 04:00:00 10.3 3 Noroeste 8 Noroeste 0 -- -- 80
2018-04-15 03:00:00 10.6 0 Calma 7 Norte 0 -- -- 79
2018-04-15 02:00:00 11.2 2 Noroeste 6 Oeste 0 -- -- 76
2018-04-15 01:00:00 11.6 0 Calma 10 Oeste 0 -- -- 76
2018-04-15 00:00:00 12.2 2 Norte 10 Norte 0 -- -- 75
2018-04-14 23:00:00 12.7 2 Norte 8 Norte 0 -- -- 74
2018-04-14 22:00:00 13.6 0 Calma 12 Noroeste 0 -- -- 66
2018-04-14 21:00:00 14.8 2 Noroeste 18 Oeste 0 -- -- 60
2018-04-14 20:00:00 16.2 5 Noroeste 17 Oeste 0 -- -- 52
2018-04-14 19:00:00 18.6 4 Oeste 17 Oeste 0 -- -- 44
2018-04-14 18:00:00 19 7 Oeste 19 Oeste 0 -- -- 43
2018-04-14 17:00:00 18.9 7 Oeste 17 Noroeste 0 -- -- 48
2018-04-14 16:00:00 17.9 5 Oeste 18 Noroeste 0 -- -- 49
2018-04-14 15:00:00 17.3 5 Oeste 16 Oeste 0 -- -- 56
2018-04-14 14:00:00 16.9 5 Oeste 16 Noroeste 0 -- -- 58
2018-04-14 13:00:00 16.8 6 Oeste 17 Sudoeste 0 -- -- 64
2018-04-14 12:00:00 14.8 6 Sur 13 Sur 0 -- -- 70
2018-04-14 11:00:00 11.4 4 Sudoeste 8 Sur 0 -- -- 81
2018-04-14 10:00:00 7.7 3 Sur 5 Sudoeste 0 -- -- 94
2018-04-14 09:00:00 6.3 0 Calma 2 Sudeste 0 -- -- 95
2018-04-14 08:00:00 5.3 0 Calma 2 Sudoeste 0 -- -- 94
2018-04-14 07:00:00 6.6 0 Calma 3 Oeste 0 -- -- 92
2018-04-14 06:00:00 6.3 0 Calma 3 Oeste 0 -- -- 91
2018-04-14 05:00:00 6.8 0 Calma 0 Calma 0 -- -- 87
2018-04-14 04:00:00 7.5 0 Calma 2 Oeste 0 -- -- 85
2018-04-14 03:00:00 7.9 0 Calma 2 Este 0 -- -- 81
2018-04-14 02:00:00 8.5 0 Calma 2 Sudeste 0 -- -- 76
2018-04-14 01:00:00 9 0 Calma 2 Norte 0 -- -- 77
2018-04-14 00:00:00 9.5 0 Calma 3 Norte 0 -- -- 76
2018-04-13 23:00:00 10.1 2 Nordeste 6 Nordeste 0 -- -- 72
2018-04-13 22:00:00 10.6 0 Calma 5 Norte 0 -- -- 72
2018-04-13 21:00:00 11.9 2 Norte 12 Norte 0 -- -- 65
2018-04-13 20:00:00 14.1 2 Noroeste 12 Oeste 0 -- -- 47
2018-04-13 19:00:00 15.4 3 Noroeste 13 Oeste 0 -- -- 47
2018-04-13 18:00:00 16.5 4 Noroeste 13 Norte 0 -- -- 45
2018-04-13 17:00:00 14.3 6 Norte 13 Norte 0 -- -- 50
2018-04-13 16:00:00 16.5 5 Sudoeste 17 Sur 0 -- -- 48
2018-04-13 15:00:00 15.8 8 Sudoeste 18 Sur 0 -- -- 53
2018-04-13 14:00:00 15.1 6 Sur 18 Sudoeste 0 -- -- 60
2018-04-13 13:00:00 13.3 8 Sur 18 Sur 0 -- -- 62
2018-04-13 12:00:00 10.9 9 Sur 19 Sudoeste 0 -- -- 75
2018-04-13 11:00:00 9.6 10 Sur 21 Sudoeste 0 -- -- 83
2018-04-13 10:00:00 6.6 9 Sur 17 Sur 0 -- -- 93
2018-04-13 09:00:00 5.5 6 Sur 17 Sur 0 -- -- 95
2018-04-13 08:00:00 5 9 Sur 18 Sur 0 -- -- 96
2018-04-13 07:00:00 5.1 6 Sur 14 Sudoeste 0 -- -- 96
2018-04-13 06:00:00 5.3 4 Sur 14 Sur 0 -- -- 95
2018-04-13 05:00:00 5.5 5 Sur 10 Sur 0 -- -- 95
2018-04-13 04:00:00 5.6 3 Sur 11 Noroeste 0 -- -- 94
2018-04-13 03:00:00 6 2 Sudoeste 8 Sur 0 -- -- 94
2018-04-13 02:00:00 6 7 Sudoeste 16 Sudeste 0 -- -- 93
2018-04-13 01:00:00 6.2 6 Sudoeste 15 Sudoeste 0 -- -- 95
2018-04-13 00:00:00 6.7 8 Sudoeste 16 Sudoeste 0 -- -- 91
2018-04-12 23:00:00 7 4 Sudoeste 27 Sur 0 -- -- 88
2018-04-12 22:00:00 7 3 Sudoeste 15 Sur 0.2 -- -- 98
2018-04-12 21:00:00 6.9 9 Sudoeste 21 Sudoeste 0.4 -- -- 98
2018-04-12 20:00:00 6.9 10 Sudoeste 18 Sur 0.8 -- -- 95
2018-04-12 19:00:00 7 4 Sur 33 Sur 1.4 -- -- 94
2018-04-12 18:00:00 8.2 15 Sudoeste 45 Sur 2.6 -- -- 91
2018-04-12 17:00:00 8.4 7 Sudeste 19 Sudeste 1.8 -- -- 96
2018-04-12 16:00:00 8.3 8 Sur 28 Sur 2.8 -- -- 96
2018-04-12 15:00:00 8.8 14 Sur 30 Sudoeste 0 -- -- 89
2018-04-12 14:00:00 9.7 21 Sudoeste 37 Sudoeste 0 -- -- 83
2018-04-12 13:00:00 10.5 12 Sudoeste 37 Sur 0 -- -- 72
2018-04-12 12:00:00 9.7 19 Sudoeste 34 Sudoeste 0 -- -- 75
2018-04-12 11:00:00 10.4 18 Sudoeste 31 Sur 0 -- -- 76
2018-04-12 10:00:00 8.2 9 Sudoeste 19 Sur 0 -- -- 88
2018-04-12 09:00:00 7.7 9 Sudoeste 19 Oeste 0 -- -- 90
2018-04-12 08:00:00 7.7 10 Oeste 25 Oeste 0 -- -- 87
2018-04-12 07:00:00 7.7 11 Oeste 23 Oeste 0 -- -- 88
2018-04-12 06:00:00 7.7 8 Oeste 25 Oeste 0 -- -- 88
2018-04-12 05:00:00 7.8 10 Oeste 21 Noroeste 0 -- -- 87
2018-04-12 04:00:00 7.6 6 Oeste 24 Noroeste 0 -- -- 87
2018-04-12 03:00:00 7.7 10 Noroeste 23 Noroeste 0 -- -- 84
2018-04-12 02:00:00 7.6 6 Oeste 36 Noroeste 0 -- -- 81
2018-04-12 01:00:00 8.5 15 Noroeste 32 Noroeste 0 -- -- 75
2018-04-12 00:00:00 9.1 11 Oeste 27 Oeste 0 -- -- 70
2018-04-11 23:00:00 9.6 12 Oeste 27 Oeste 0 -- -- 67
2018-04-11 22:00:00 10.1 12 Oeste 31 Oeste 0 -- -- 63
2018-04-11 21:00:00 10.3 13 Oeste 36 Noroeste 0 -- -- 63
2018-04-11 20:00:00 11.4 21 Oeste 38 Oeste 0 -- -- 53
2018-04-11 19:00:00 11.6 13 Noroeste 36 Noroeste 0 -- -- 51
2018-04-11 18:00:00 12.4 16 Noroeste 44 Noroeste 0 -- -- 48
2018-04-11 17:00:00 11.8 18 Noroeste 50 Noroeste 0 -- -- 51
2018-04-11 16:00:00 11.3 14 Noroeste 37 Noroeste 0 -- -- 57
2018-04-11 15:00:00 10 14 Noroeste 45 Noroeste 0 -- -- 63
2018-04-11 14:00:00 9.2 23 Oeste 48 Oeste 0 -- -- 66
2018-04-11 13:00:00 7.9 19 Oeste 38 Noroeste 0 -- -- 75
2018-04-11 12:00:00 6.9 13 Oeste 32 Oeste 0 -- -- 82
2018-04-11 11:00:00 5.2 7 Noroeste 28 Oeste 0 -- -- 89
2018-04-11 10:00:00 4.4 9 Oeste 27 Noroeste 0 -- -- 95
2018-04-11 09:00:00 4.1 8 Noroeste 28 Oeste 0 -- -- 96
2018-04-11 08:00:00 4.3 19 Oeste 43 Oeste 0.2 -- -- 94
2018-04-11 07:00:00 4.4 14 Noroeste 35 Noroeste 0.4 -- -- 96
2018-04-11 06:00:00 4.4 9 Oeste 27 Oeste 0.2 -- -- 90
2018-04-11 05:00:00 4.9 9 Oeste 28 Oeste 0 -- -- 90
2018-04-11 04:00:00 5 7 Oeste 31 Oeste 0 -- -- 90
2018-04-11 03:00:00 5.1 14 Oeste 30 Oeste 0 -- -- 90
2018-04-11 02:00:00 5.5 7 Oeste 29 Oeste 0 -- -- 86
2018-04-11 01:00:00 5.8 13 Oeste 31 Noroeste 0 -- -- 83
2018-04-11 00:00:00 5.9 13 Oeste 31 Oeste 0 -- -- 85
2018-04-10 23:00:00 6.2 11 Oeste 29 Oeste 0 -- -- 84
2018-04-10 22:00:00 6.1 12 Oeste 41 Oeste 0 -- -- 81
2018-04-10 21:00:00 7.5 21 Oeste 40 Oeste 0 -- -- 81
2018-04-10 20:00:00 7.7 18 Oeste 42 Oeste 0 -- -- 86
2018-04-10 19:00:00 7.7 17 Oeste 40 Oeste 0.4 -- -- 84
2018-04-10 18:00:00 7.1 10 Noroeste 38 Noroeste 2 -- -- 97
2018-04-10 17:00:00 8 13 Oeste 32 Oeste 0.8 -- -- 97
2018-04-10 16:00:00 7.8 17 Oeste 53 Sudoeste 4 -- -- 97
2018-04-10 15:00:00 8.5 31 Sudoeste 75 Sudoeste 0.8 -- -- 96
2018-04-10 14:00:00 7.5 35 Sudoeste 62 Sudoeste 1.2 -- -- 98
2018-04-10 13:00:00 6.8 29 Sudoeste 56 Sudoeste 1 -- -- 96
2018-04-10 12:00:00 6.5 29 Sudoeste 52 Sudoeste 0.8 -- -- 94
2018-04-10 11:00:00 6.5 22 Sudoeste 45 Sudoeste 1.2 -- -- 96
2018-04-10 10:00:00 6.6 28 Sudoeste 47 Sur 0.8 -- -- 96
2018-04-10 09:00:00 6.8 26 Sudoeste 46 Sudoeste 0.2 -- -- 94
2018-04-10 08:00:00 7.3 24 Sur 40 Sur 0 -- -- 89
2018-04-10 07:00:00 7.4 12 Sudoeste 35 Sudoeste 0 -- -- 91
2018-04-10 06:00:00 7.6 8 Sudoeste 30 Sudoeste 0 -- -- 90
2018-04-10 05:00:00 7.5 9 Sudoeste 26 Sudoeste 0 -- -- 92
2018-04-10 04:00:00 7.6 3 Oeste 27 Oeste 0 -- -- 91
2018-04-10 03:00:00 7.5 5 Oeste 17 Sudoeste 0 -- -- 92
2018-04-10 02:00:00 7.6 4 Oeste 17 Oeste 0 -- -- 91
2018-04-10 01:00:00 7.5 9 Oeste 23 Oeste 0 -- -- 89
2018-04-10 00:00:00 7.3 7 Oeste 16 Oeste 0.2 -- -- 88
2018-04-09 23:00:00 6.9 7 Sudoeste 28 Oeste 0 -- -- 92
2018-04-09 22:00:00 6.7 9 Oeste 27 Oeste 0.4 -- -- 93
2018-04-09 21:00:00 6.4 6 Oeste 27 Oeste 0.6 -- -- 95
2018-04-09 20:00:00 6.9 4 Oeste 18 Noroeste 0 -- -- 83
2018-04-09 19:00:00 6.3 7 Oeste 37 Oeste 0.2 -- -- 89
2018-04-09 18:00:00 7.2 22 Oeste 45 Oeste 0 -- -- 75
2018-04-09 17:00:00 5.8 12 Noroeste 28 Noroeste 0.6 -- -- 89
2018-04-09 16:00:00 6.7 12 Noroeste 40 Noroeste 0 -- -- 79
2018-04-09 15:00:00 8 10 Oeste 31 Oeste 0.4 -- -- 75
2018-04-09 14:00:00 8.5 9 Oeste 29 Sudoeste 0 -- -- 69
2018-04-09 13:00:00 7.2 12 Sudoeste 27 Sur 0.2 -- -- 83
2018-04-09 12:00:00 5.3 12 Sudoeste 34 Oeste 0.2 -- -- 86
2018-04-09 11:00:00 5.3 8 Sudoeste 30 Sur 0 -- -- 87
2018-04-09 10:00:00 5.2 13 Sudoeste 25 Sudoeste 0 -- -- 88
2018-04-09 09:00:00 4.6 6 Sudoeste 27 Oeste 0 -- -- 87
2018-04-09 08:00:00 4.6 5 Sudoeste 17 Oeste 0 -- -- 94
2018-04-09 07:00:00 4.6 8 Oeste 26 Oeste 0.4 -- -- 94
2018-04-09 06:00:00 4.6 6 Sudoeste 27 Sudoeste 0 -- -- 94
2018-04-09 05:00:00 4.8 12 Sudoeste 28 Oeste 0 -- -- 91
2018-04-09 04:00:00 5.3 10 Sudoeste 33 Sur 0 -- -- 90
2018-04-09 03:00:00 5.6 9 Sudoeste 21 Sudoeste 0 -- -- 93
2018-04-09 02:00:00 5.4 6 Sudoeste 19 Oeste 0.2 -- -- 93
2018-04-09 01:00:00 5.8 7 Oeste 33 Oeste 0.4 -- -- 90
2018-04-09 00:00:00 6.4 13 Oeste 42 Oeste 4 -- -- 90
2018-04-08 23:00:00 9 19 Sudoeste 43 Sudoeste 2.4 -- -- 93
2018-04-08 22:00:00 10.6 9 Oeste 29 Sudoeste 0 -- -- 75
2018-04-08 21:00:00 11.9 12 Sudoeste 38 Sudoeste 0 -- -- 63
2018-04-08 20:00:00 11.8 8 Sudoeste 33 Sudoeste 0 -- -- 68
2018-04-08 19:00:00 13.2 12 Sudoeste 29 Sudoeste 0 -- -- 61
2018-04-08 18:00:00 14.2 13 Oeste 36 Oeste 0 -- -- 54
2018-04-08 17:00:00 13.1 14 Oeste 30 Noroeste 0 -- -- 64
2018-04-08 16:00:00 12.9 13 Oeste 30 Oeste 0 -- -- 63
2018-04-08 15:00:00 12.3 16 Oeste 34 Oeste 0 -- -- 64
2018-04-08 14:00:00 11 8 Oeste 25 Noroeste 0 -- -- 75
2018-04-08 13:00:00 10 8 Oeste 25 Oeste 0.2 -- -- 83
2018-04-08 12:00:00 8.8 8 Oeste 23 Noroeste 0 -- -- 91
2018-04-08 11:00:00 8.9 5 Oeste 16 Noroeste 0.2 -- -- 96
2018-04-08 10:00:00 7.7 6 Oeste 14 Oeste 0 -- -- 94
2018-04-08 09:00:00 7.4 5 Oeste 16 Noroeste 0 -- -- 95
2018-04-08 08:00:00 7.1 4 Oeste 15 Oeste 0 -- -- 96
2018-04-08 07:00:00 7 6 Oeste 18 Oeste 0.2 -- -- 95
2018-04-08 06:00:00 7.1 6 Oeste 14 Noroeste 0.6 -- -- 97
2018-04-08 05:00:00 7.3 3 Oeste 9 Oeste 0 -- -- 93
2018-04-08 04:00:00 7.4 4 Oeste 12 Oeste 0 -- -- 92
2018-04-08 03:00:00 7.4 3 Oeste 13 Sudoeste 0 -- -- 94
2018-04-08 02:00:00 7.7 6 Sudoeste 16 Sudoeste 0 -- -- 93
2018-04-08 01:00:00 7.9 6 Sudoeste 16 Sudoeste 0 -- -- 91
2018-04-08 00:00:00 8.3 0 Calma 19 Sudoeste 0 -- -- 92
2018-04-07 23:00:00 8.4 2 Sudeste 15 Sudoeste 0 -- -- 86
2018-04-07 22:00:00 8.8 10 Sudoeste 21 Sudoeste 0 -- -- 83
2018-04-07 21:00:00 9.4 7 Sudoeste 19 Sudoeste 0 -- -- 78
2018-04-07 20:00:00 10.4 6 Oeste 34 Noroeste 0.2 -- -- 77
2018-04-07 19:00:00 10.8 5 Noroeste 25 Sur 0 -- -- 78
2018-04-07 18:00:00 12.8 9 Sudoeste 27 Sur 0.2 -- -- 71
2018-04-07 17:00:00 11.4 18 Sudoeste 37 Oeste 0 -- -- 79
2018-04-07 16:00:00 12.3 5 Sudoeste 13 Oeste 0 -- -- 78
2018-04-07 15:00:00 11 3 Oeste 12 Oeste 0.2 -- -- 79
2018-04-07 14:00:00 9.8 2 Noroeste 13 Oeste 0.4 -- -- 90
2018-04-07 13:00:00 8.8 4 Oeste 13 Noroeste 0 -- -- 91
2018-04-07 12:00:00 8.5 3 Oeste 15 Sudoeste 0.2 -- -- 96
2018-04-07 11:00:00 7.8 3 Oeste 8 Sudoeste 1.2 -- -- 97
2018-04-07 10:00:00 7.8 2 Noroeste 7 Oeste 0.8 -- -- 97
2018-04-07 09:00:00 7.8 3 Oeste 9 Noroeste 0.6 -- -- 97
2018-04-07 08:00:00 7.8 0 Calma 5 Noroeste 0.6 -- -- 96
2018-04-07 07:00:00 7.9 2 Noroeste 10 Oeste 0.6 -- -- 95
2018-04-07 06:00:00 8.3 2 Noroeste 8 Noroeste 0.2 -- -- 96
2018-04-07 05:00:00 8.4 2 Noroeste 13 Oeste 0.2 -- -- 93
2018-04-07 04:00:00 8.8 2 Noroeste 10 Oeste 0 -- -- 94
2018-04-07 03:00:00 9.4 5 Noroeste 15 Oeste 0 -- -- 92
2018-04-07 02:00:00 10.6 0 Calma 13 Oeste 0 -- -- 81
2018-04-07 01:00:00 10.7 4 Noroeste 21 Noroeste 0 -- -- 81
2018-04-07 00:00:00 10.9 5 Noroeste 22 Noroeste 0 -- -- 81
2018-04-06 23:00:00 11.5 9 Noroeste 35 Oeste 0 -- -- 79
2018-04-06 22:00:00 15.4 5 Sur 31 Sudoeste 0 -- -- 65
2018-04-06 21:00:00 16.2 18 Sudoeste 44 Sudoeste 0 -- -- 63
2018-04-06 20:00:00 17.3 18 Sudoeste 44 Sur 0 -- -- 59
2018-04-06 19:00:00 18.5 31 Sudoeste 43 Sudoeste 0 -- -- 54
2018-04-06 18:00:00 19.7 24 Sudoeste 53 Sudoeste 0 -- -- 53
2018-04-06 17:00:00 19.7 10 Sudoeste 23 Oeste 0 -- -- 56
2018-04-06 16:00:00 20.1 5 Oeste 17 Sudoeste 0 -- -- 52
2018-04-06 15:00:00 20.7 6 Sudoeste 19 Sudoeste 0 -- -- 48
2018-04-06 14:00:00 20.3 8 Sudoeste 17 Sur 0 -- -- 46
2018-04-06 13:00:00 18.1 8 Sur 12 Sur 0 -- -- 54
2018-04-06 12:00:00 15.6 4 Sur 7 Sur 0 -- -- 63
2018-04-06 11:00:00 13.1 0 Calma 3 Sudoeste 0 -- -- 69
2018-04-06 10:00:00 11.4 0 Calma 2 Sur 0 -- -- 71
2018-04-06 09:00:00 10.4 0 Calma 2 Sudoeste 0 -- -- 66
2018-04-06 08:00:00 10.8 2 Nordeste 4 Nordeste 0 -- -- 59
2018-04-06 07:00:00 11.9 0 Calma 10 Sur 0 -- -- 54
2018-04-06 06:00:00 12.5 4 Sur 12 Sur 0 -- -- 50
2018-04-06 05:00:00 11.9 3 Sur 12 Sur 0 -- -- 61
2018-04-06 04:00:00 12.4 4 Sudoeste 7 Sudoeste 0 -- -- 62
2018-04-06 03:00:00 12.6 0 Calma 4 Sudeste 0 -- -- 65
2018-04-06 02:00:00 13 0 Calma 15 Sudoeste 0 -- -- 66
2018-04-06 01:00:00 14.4 0 Calma 3 Nordeste 0 -- -- 59
2018-04-06 00:00:00 15.3 0 Calma 3 Nordeste 0 -- -- 55
2018-04-05 23:00:00 15.9 0 Calma 6 Nordeste 0 -- -- 53
2018-04-05 22:00:00 16.3 2 Nordeste 13 Este 0 -- -- 53
2018-04-05 21:00:00 17.9 0 Calma 3 Sudoeste 0 -- -- 47
2018-04-05 20:00:00 19.7 4 Sur 9 Sudeste 0 -- -- 41
2018-04-05 19:00:00 21.1 5 Sur 11 Sur 0 -- -- 40
2018-04-05 18:00:00 21.9 4 Sudoeste 18 Sur 0 -- -- 40
2018-04-05 17:00:00 21.5 7 Sur 17 Sur 0 -- -- 42
2018-04-05 16:00:00 22.1 11 Sudoeste 20 Sudoeste 0 -- -- 40
2018-04-05 15:00:00 20.9 8 Sur 21 Sudoeste 0 -- -- 43
2018-04-05 14:00:00 19.6 3 Sudeste 15 Este 0 -- -- 44
2018-04-05 13:00:00 17.8 8 Este 18 Este 0 -- -- 53
2018-04-05 12:00:00 15.7 7 Este 18 Nordeste 0 -- -- 59
2018-04-05 11:00:00 12.9 4 Este 15 Este 0 -- -- 73
2018-04-05 10:00:00 8.8 3 Sudeste 8 Sudeste 0 -- -- 89
2018-04-05 09:00:00 6.9 2 Oeste 6 Este 0 -- -- 93
2018-04-05 08:00:00 6.1 0 Calma 2 Oeste 0 -- -- 95
2018-04-05 07:00:00 6.3 0 Calma 8 Nordeste 0 -- -- 94
2018-04-05 06:00:00 6.7 0 Calma 6 Sur 0 -- -- 94
2018-04-05 05:00:00 7.5 0 Calma 5 Nordeste 0 -- -- 90
2018-04-05 04:00:00 8.2 0 Calma 5 Nordeste 0 -- -- 87
2018-04-05 03:00:00 8.8 0 Calma 3 Sudeste 0 -- -- 86
2018-04-05 02:00:00 9.3 0 Calma 5 Nordeste 0 -- -- 83
2018-04-05 01:00:00 10.3 3 Este 5 Este 0 -- -- 78
2018-04-05 00:00:00 11.4 2 Noroeste 10 Oeste 0 -- -- 73
2018-04-04 23:00:00 11.4 3 Oeste 7 Oeste 0 -- -- 73
2018-04-04 22:00:00 12.3 0 Calma 12 Oeste 0 -- -- 69
2018-04-04 21:00:00 13.4 3 Noroeste 18 Noroeste 0 -- -- 62
2018-04-04 20:00:00 14.4 6 Oeste 30 Oeste 0 -- -- 63
2018-04-04 19:00:00 14 12 Oeste 38 Oeste 0 -- -- 60
2018-04-04 18:00:00 15.6 6 Noroeste 32 Oeste 0 -- -- 53
2018-04-04 17:00:00 16.5 14 Oeste 32 Oeste 0 -- -- 47
2018-04-04 16:00:00 13.8 4 Noroeste 32 Oeste 0 -- -- 67
2018-04-04 15:00:00 14.2 9 Oeste 30 Oeste 0 -- -- 57
2018-04-04 14:00:00 13.4 17 Noroeste 32 Noroeste 0 -- -- 60
2018-04-04 13:00:00 12.4 9 Oeste 30 Oeste 0 -- -- 69
2018-04-04 12:00:00 11.9 9 Sudoeste 28 Sudoeste 0 -- -- 73
2018-04-04 11:00:00 10.9 5 Noroeste 42 Oeste 0 -- -- 76
2018-04-04 10:00:00 9.4 17 Sudoeste 36 Sur 0 -- -- 84
2018-04-04 09:00:00 8.9 12 Sudoeste 30 Sudoeste 0 -- -- 86
2018-04-04 08:00:00 8.8 10 Sudoeste 30 Sudoeste 0 -- -- 85
2018-04-04 07:00:00 9 17 Sudoeste 31 Sudoeste 0 -- -- 84
2018-04-04 06:00:00 9.6 4 Oeste 27 Noroeste 0 -- -- 83
2018-04-04 05:00:00 9.7 7 Noroeste 23 Oeste 0 -- -- 81
2018-04-04 04:00:00 9.6 5 Oeste 28 Oeste 0 -- -- 85
2018-04-04 03:00:00 10.7 14 Sudoeste 41 Oeste 0 -- -- 76
2018-04-04 02:00:00 11.2 9 Oeste 27 Noroeste 0 -- -- 72
2018-04-04 01:00:00 11.6 6 Oeste 34 Sur 0 -- -- 71
2018-04-04 00:00:00 11.9 9 Sudoeste 30 Sudoeste 0 -- -- 70
2018-04-03 23:00:00 11.9 7 Sudoeste 32 Sudoeste 0 -- -- 76
2018-04-03 22:00:00 12.6 14 Sudoeste 39 Sudoeste 0 -- -- 76
2018-04-03 21:00:00 14.4 25 Sudoeste 56 Sudoeste 0 -- -- 66
2018-04-03 20:00:00 15.8 26 Sur 57 Sudoeste 0 -- -- 54
2018-04-03 19:00:00 16.9 24 Sudoeste 58 Sur 0 -- -- 49
2018-04-03 18:00:00 17.3 21 Sudoeste 52 Sur 0 -- -- 48
2018-04-03 17:00:00 17.9 21 Sudoeste 52 Sudoeste 0 -- -- 49
2018-04-03 16:00:00 17.5 18 Sudoeste 43 Sudoeste 0 -- -- 55
2018-04-03 15:00:00 15.7 18 Sudoeste 46 Sur 0 -- -- 58
2018-04-03 14:00:00 15 15 Sudoeste 40 Sudoeste 0 -- -- 60
2018-04-03 13:00:00 14 12 Sudoeste 45 Sudoeste 0 -- -- 64
2018-04-03 12:00:00 13 9 Sudoeste 32 Sur 0 -- -- 75
2018-04-03 11:00:00 12.1 17 Sudoeste 30 Sur 0 -- -- 79
2018-04-03 10:00:00 10.9 15 Sur 26 Sur 0 -- -- 88
2018-04-03 09:00:00 10.6 10 Sur 24 Sur 0 -- -- 89
2018-04-03 08:00:00 10.6 8 Sudoeste 30 Sudoeste 0 -- -- 89
2018-04-03 07:00:00 11 19 Sudoeste 35 Sudoeste 0 -- -- 88
2018-04-03 06:00:00 11.3 12 Sur 25 Sudoeste 0 -- -- 88
2018-04-03 05:00:00 11.8 13 Sudoeste 25 Sur 0 -- -- 87
2018-04-03 04:00:00 12.2 12 Sudoeste 30 Sudoeste 0 -- -- 87
2018-04-03 03:00:00 12.5 8 Sudoeste 27 Sudoeste 0 -- -- 84
2018-04-03 02:00:00 12.7 11 Sudoeste 33 Sur 0 -- -- 81
2018-04-03 01:00:00 13 14 Sudoeste 32 Sudoeste 0 -- -- 77
2018-04-03 00:00:00 13.3 15 Sudoeste 35 Sur 0 -- -- 75
2018-04-02 23:00:00 14.2 12 Sudoeste 28 Sudoeste 0 -- -- 67
2018-04-02 22:00:00 15 13 Sur 38 Sudoeste 0 -- -- 62
2018-04-02 21:00:00 15.5 13 Oeste 29 Sudoeste 0 -- -- 58
2018-04-02 20:00:00 16.4 16 Sudoeste 36 Sudoeste 0 -- -- 56
2018-04-02 19:00:00 17.7 15 Sudoeste 39 Oeste 0 -- -- 53
2018-04-02 18:00:00 19.3 24 Sur 47 Sur 0 -- -- 45
2018-04-02 17:00:00 19.5 24 Sudoeste 42 Sudoeste 0 -- -- 43
2018-04-02 16:00:00 20.1 22 Sudoeste 39 Sur 0 -- -- 40
2018-04-02 15:00:00 18.4 19 Sudoeste 38 Sudoeste 0 -- -- 42
2018-04-02 14:00:00 17.6 25 Sudoeste 39 Sudoeste 0 -- -- 43
2018-04-02 13:00:00 15.4 14 Sudoeste 27 Sudoeste 0 -- -- 51
2018-04-02 12:00:00 15.3 11 Sudoeste 19 Sur 0 -- -- 47
2018-04-02 11:00:00 13.8 7 Sur 17 Sudoeste 0 -- -- 49
2018-04-02 10:00:00 11.9 5 Sudoeste 15 Sur 0 -- -- 53
2018-04-02 09:00:00 10.1 3 Sur 10 Sudoeste 0 -- -- 51
2018-04-02 08:00:00 10.3 7 Sudoeste 17 Sudoeste 0 -- -- 48
2018-04-02 07:00:00 10.4 7 Sudoeste 17 Sur 0 -- -- 52
2018-04-02 06:00:00 10.8 8 Sur 25 Sur 0 -- -- 51
2018-04-02 05:00:00 10.6 11 Sudoeste 19 Sur 0 -- -- 54
2018-04-02 04:00:00 11.4 10 Sur 27 Sur 0 -- -- 53
2018-04-02 03:00:00 13 8 Sur 24 Sur 0 -- -- 43
2018-04-02 02:00:00 12.4 4 Sudoeste 13 Sudoeste 0 -- -- 60
2018-04-02 01:00:00 13 6 Sudoeste 9 Sudoeste 0 -- -- 58
2018-04-02 00:00:00 13.7 4 Sur 7 Sur 0 -- -- 55
2018-04-01 23:00:00 14.9 2 Sur 6 Sudoeste 0 -- -- 49
2018-04-01 22:00:00 15.9 4 Sur 8 Sur 0 -- -- 43
2018-04-01 21:00:00 16.8 2 Sudoeste 9 Sur 0 -- -- 41
2018-04-01 20:00:00 17.9 5 Sur 18 Sur 0 -- -- 39
2018-04-01 19:00:00 18.9 13 Sur 18 Sudoeste 0 -- -- 36
2018-04-01 18:00:00 20.3 5 Sur 12 Sudoeste 0 -- -- 40
2018-04-01 17:00:00 21.4 6 Sur 15 Sur 0 -- -- 36
2018-04-01 16:00:00 20.8 5 Este 18 Sudeste 0 -- -- 41
2018-04-01 15:00:00 19.1 6 Sur 19 Sur 0 -- -- 43
2018-04-01 14:00:00 18.7 9 Sudoeste 19 Sur 0 -- -- 42
2018-04-01 13:00:00 17 5 Sudeste 17 Sudeste 0 -- -- 46
2018-04-01 12:00:00 14.2 8 Este 19 Este 0 -- -- 55
2018-04-01 11:00:00 10.9 10 Este 19 Este 0 -- -- 64
2018-04-01 10:00:00 8.4 8 Este 18 Este 0 -- -- 71
2018-04-01 09:00:00 5.8 3 Este 11 Nordeste 0 -- -- 84
2018-04-01 08:00:00 4.8 0 Calma 6 Nordeste 0 -- -- 88
2018-04-01 07:00:00 4.9 0 Calma 4 Sur 0 -- -- 89
2018-04-01 06:00:00 5.3 2 Sudoeste 5 Nordeste 0 -- -- 87
2018-04-01 05:00:00 5.8 0 Calma 3 Norte 0 -- -- 86
2018-04-01 04:00:00 6.4 0 Calma 4 Este 0 -- -- 83
2018-04-01 03:00:00 6.8 0 Calma 5 Sur 0 -- -- 81
2018-04-01 02:00:00 7.7 0 Calma 4 Nordeste 0 -- -- 76
2018-04-01 01:00:00 8.2 0 Calma 4 Sur 0 -- -- 74
2018-04-01 00:00:00 8.8 0 Calma 3 Este 0 -- -- 69
2018-03-31 23:00:00 9.5 0 Calma 3 Oeste 0 -- -- 68
2018-03-31 22:00:00 10.1 0 Calma 6 Noroeste 0 -- -- 65
2018-03-31 21:00:00 10.7 0 Calma 8 Oeste 0 -- -- 61
2018-03-31 20:00:00 11.7 3 Noroeste 17 Oeste 0 -- -- 56
2018-03-31 19:00:00 13 6 Oeste 19 Oeste 0 -- -- 51
2018-03-31 18:00:00 13.9 9 Oeste 22 Oeste 0 -- -- 50
2018-03-31 17:00:00 13.4 12 Oeste 30 Noroeste 0 -- -- 51
2018-03-31 16:00:00 13.2 13 Oeste 29 Oeste 0 -- -- 53
2018-03-31 15:00:00 12.1 9 Noroeste 24 Oeste 0 -- -- 56
2018-03-31 14:00:00 11.2 6 Noroeste 24 Oeste 0 -- -- 60
2018-03-31 13:00:00 10.1 6 Noroeste 26 Oeste 0.2 -- -- 65
2018-03-31 12:00:00 8.4 12 Oeste 31 Noroeste 0 -- -- 70
2018-03-31 11:00:00 6.8 5 Noroeste 30 Noroeste 0 -- -- 80
2018-03-31 10:00:00 6 11 Noroeste 31 Noroeste 0 -- -- 83
2018-03-31 09:00:00 5.5 8 Oeste 32 Oeste 0 -- -- 89
2018-03-31 08:00:00 5.4 15 Oeste 33 Oeste 0 -- -- 88
2018-03-31 07:00:00 5.9 21 Oeste 40 Oeste 0 -- -- 85
2018-03-31 06:00:00 6 9 Noroeste 28 Oeste 0 -- -- 84
2018-03-31 05:00:00 6 14 Oeste 33 Oeste 0 -- -- 83
2018-03-31 04:00:00 6 13 Oeste 28 Oeste 0 -- -- 81
2018-03-31 03:00:00 6.2 12 Oeste 26 Oeste 0 -- -- 82
2018-03-31 02:00:00 6.6 11 Noroeste 30 Oeste 0 -- -- 81
2018-03-31 01:00:00 6.7 16 Oeste 48 Oeste 0 -- -- 85
2018-03-31 00:00:00 5.8 24 Oeste 52 Oeste 1 -- -- 87
2018-03-30 23:00:00 7.2 12 Noroeste 42 Noroeste 0.2 -- -- 84
2018-03-30 22:00:00 7.1 21 Oeste 64 Sudoeste 0.2 -- -- 84
2018-03-30 21:00:00 8.4 7 Sudoeste 27 Oeste 0 -- -- 69
2018-03-30 20:00:00 8.2 13 Oeste 52 Noroeste 0 -- -- 68
2018-03-30 19:00:00 9.7 18 Noroeste 47 Noroeste 0 -- -- 61
2018-03-30 18:00:00 12.5 6 Sudoeste 48 Noroeste 0 -- -- 53
2018-03-30 17:00:00 10.5 17 Oeste 50 Oeste 0 -- -- 52
2018-03-30 16:00:00 10.6 18 Oeste 44 Noroeste 0 -- -- 55
2018-03-30 15:00:00 10.2 18 Oeste 40 Noroeste 0 -- -- 48
2018-03-30 14:00:00 9.5 15 Noroeste 40 Oeste 0 -- -- 56
2018-03-30 13:00:00 8.8 15 Noroeste 35 Noroeste 0 -- -- 60
2018-03-30 12:00:00 8.2 15 Oeste 33 Oeste 0 -- -- 65
2018-03-30 11:00:00 7 12 Oeste 29 Oeste 0 -- -- 77
2018-03-30 10:00:00 6.1 10 Oeste 28 Noroeste 0 -- -- 89
2018-03-30 09:00:00 6.7 12 Oeste 28 Oeste 0 -- -- 89
2018-03-30 08:00:00 6.5 8 Oeste 27 Sur 0 -- -- 93
2018-03-30 07:00:00 6.8 11 Sudoeste 29 Sudoeste 0 -- -- 91
2018-03-30 06:00:00 7.2 15 Sudoeste 45 Sudoeste 0 -- -- 85
2018-03-30 05:00:00 7.1 13 Sudoeste 40 Sur 0 -- -- 83
2018-03-30 04:00:00 7.3 12 Sudoeste 34 Sudoeste 0 -- -- 78
2018-03-30 03:00:00 7.4 6 Sudoeste 31 Sudoeste 0 -- -- 78
2018-03-30 02:00:00 7.8 9 Sudoeste 27 Sudoeste 0 -- -- 74
2018-03-30 01:00:00 8.7 6 Noroeste 26 Oeste 0 -- -- 69
2018-03-30 00:00:00 9.6 12 Oeste 27 Oeste 0 -- -- 61
2018-03-29 23:00:00 9.7 13 Oeste 28 Oeste 0 -- -- 60
2018-03-29 22:00:00 10 9 Oeste 23 Oeste 0 -- -- 64
2018-03-29 21:00:00 10.6 11 Oeste 27 Oeste 0 -- -- 58
2018-03-29 20:00:00 11.7 12 Noroeste 29 Noroeste 0 -- -- 57
2018-03-29 19:00:00 12.8 15 Noroeste 30 Oeste 0 -- -- 50
2018-03-29 18:00:00 13.6 8 Oeste 25 Oeste 0 -- -- 53
2018-03-29 17:00:00 14.6 10 Oeste 30 Sudoeste 0 -- -- 51
2018-03-29 16:00:00 14.1 10 Sudoeste 37 Noroeste 0 -- -- 54
2018-03-29 15:00:00 12.1 10 Noroeste 27 Oeste 0 -- -- 59
2018-03-29 14:00:00 11.6 10 Noroeste 31 Oeste 0 -- -- 63
2018-03-29 13:00:00 10.8 9 Oeste 27 Oeste 0 -- -- 65
2018-03-29 12:00:00 9.7 13 Noroeste 27 Noroeste 0 -- -- 69
2018-03-29 11:00:00 9.1 6 Noroeste 22 Noroeste 0 -- -- 81
2018-03-29 10:00:00 8.5 8 Noroeste 19 Noroeste 0 -- -- 88
2018-03-29 09:00:00 8.5 6 Noroeste 21 Noroeste 0 -- -- 92
2018-03-29 08:00:00 8.5 9 Noroeste 19 Noroeste 0 -- -- 94
2018-03-29 07:00:00 8.9 4 Noroeste 22 Noroeste 0 -- -- 94
2018-03-29 06:00:00 9.2 5 Noroeste 16 Noroeste 0 -- -- 92
2018-03-29 05:00:00 9 3 Noroeste 19 Norte 0 -- -- 92
2018-03-29 04:00:00 9.5 5 Noroeste 19 Oeste 0 -- -- 89
2018-03-29 03:00:00 9.5 4 Oeste 16 Noroeste 0 -- -- 90
2018-03-29 02:00:00 10.5 5 Noroeste 24 Oeste 0 -- -- 84
2018-03-29 01:00:00 11.3 8 Noroeste 37 Oeste 0 -- -- 83
2018-03-29 00:00:00 12.6 11 Noroeste 28 Noroeste 0 -- -- 77
2018-03-28 23:00:00 14 5 Noroeste 21 Noroeste 0 -- -- 63
2018-03-28 22:00:00 15.3 3 Noroeste 13 Oeste 0 -- -- 52
2018-03-28 21:00:00 16 0 Calma 14 Oeste 0 -- -- 42
2018-03-28 20:00:00 17.9 7 Noroeste 19 Noroeste 0 -- -- 33
2018-03-28 19:00:00 19.4 6 Noroeste 23 Noroeste 0 -- -- 30
2018-03-28 18:00:00 20.9 8 Noroeste 27 Oeste 0 -- -- 27
2018-03-28 17:00:00 21 10 Oeste 22 Noroeste 0 -- -- 35
2018-03-28 16:00:00 20.7 5 Noroeste 19 Oeste 0 -- -- 30
2018-03-28 15:00:00 20.3 6 Noroeste 19 Norte 0 -- -- 32
2018-03-28 14:00:00 19.5 4 Noroeste 14 Noroeste 0 -- -- 40
2018-03-28 13:00:00 18.2 4 Oeste 12 Oeste 0 -- -- 51
2018-03-28 12:00:00 15.6 6 Sur 13 Sur 0 -- -- 71
2018-03-28 11:00:00 12.3 9 Sur 14 Sudoeste 0 -- -- 80
2018-03-28 10:00:00 9.4 7 Sudoeste 12 Sur 0 -- -- 90
2018-03-28 09:00:00 7.8 3 Sudoeste 8 Sudoeste 0 -- -- 91
2018-03-28 08:00:00 7.3 0 Calma 3 Norte 0 -- -- 95
2018-03-28 07:00:00 7.9 0 Calma 4 Sur 0 -- -- 93
2018-03-28 06:00:00 8.7 0 Calma 3 Sur 0 -- -- 91
2018-03-28 05:00:00 9.3 0 Calma 5 Sur 0 -- -- 88
2018-03-28 04:00:00 10.8 4 Sudoeste 7 Sudoeste 0 -- -- 83
2018-03-28 03:00:00 11 3 Sur 7 Sudoeste 0 -- -- 82
2018-03-28 02:00:00 12.2 2 Sur 8 Sudoeste 0 -- -- 76
2018-03-28 01:00:00 12.2 0 Calma 3 Sur 0 -- -- 75
2018-03-28 00:00:00 13.7 2 Sur 5 Sur 0 -- -- 67
2018-03-27 23:00:00 14.3 0 Calma 6 Oeste 0 -- -- 68
2018-03-27 22:00:00 15.2 0 Calma 7 Oeste 0 -- -- 65
2018-03-27 21:00:00 16 0 Calma 12 Oeste 0 -- -- 62
2018-03-27 20:00:00 17.6 6 Noroeste 11 Oeste 0 -- -- 57
2018-03-27 19:00:00 19.1 4 Oeste 14 Noroeste 0 -- -- 51
2018-03-27 18:00:00 20.2 4 Oeste 12 Oeste 0 -- -- 48
2018-03-27 17:00:00 19.8 4 Norte 14 Noroeste 0 -- -- 45
2018-03-27 16:00:00 19.3 4 Norte 13 Noroeste 0 -- -- 50
2018-03-27 15:00:00 18.6 3 Noroeste 17 Sudoeste 0 -- -- 56
2018-03-27 14:00:00 16.9 4 Este 10 Noroeste 0 -- -- 63
2018-03-27 13:00:00 15.9 4 Sudoeste 16 Sur 0 -- -- 58
2018-03-27 12:00:00 13.6 10 Sur 15 Sur 0 -- -- 64
2018-03-27 11:00:00 10.2 8 Sur 13 Sudoeste 0 -- -- 73
2018-03-27 10:00:00 6.5 8 Sur 13 Sur 0 -- -- 86
2018-03-27 09:00:00 5.5 0 Calma 8 Sur 0 -- -- 87
2018-03-27 08:00:00 5.3 0 Calma 2 Sudoeste 0 -- -- 87
2018-03-27 07:00:00 6.2 0 Calma 4 Sudoeste 0 -- -- 83
2018-03-27 06:00:00 7.3 0 Calma 9 Sur 0 -- -- 76
2018-03-27 05:00:00 7.5 0 Calma 6 Sudoeste 0 -- -- 76
2018-03-27 04:00:00 7.9 0 Calma 4 Sur 0 -- -- 75
2018-03-27 03:00:00 8.6 0 Calma 5 Sur 0 -- -- 72
2018-03-27 02:00:00 9.4 0 Calma 6 Este 0 -- -- 69
2018-03-27 01:00:00 10 0 Calma 4 Noroeste 0 -- -- 66
2018-03-27 00:00:00 10.7 0 Calma 6 Oeste 0 -- -- 63
2018-03-26 23:00:00 11 0 Calma 5 Noroeste 0 -- -- 63
2018-03-26 22:00:00 11.5 0 Calma 6 Oeste 0 -- -- 61
2018-03-26 21:00:00 12.1 4 Oeste 12 Oeste 0 -- -- 56
2018-03-26 20:00:00 13.4 7 Oeste 20 Noroeste 0 -- -- 50
2018-03-26 19:00:00 14.6 7 Oeste 20 Noroeste 0 -- -- 49
2018-03-26 18:00:00 15.9 5 Noroeste 22 Oeste 0 -- -- 41
2018-03-26 17:00:00 16.8 8 Oeste 19 Norte 0 -- -- 46
2018-03-26 16:00:00 16.2 6 Oeste 19 Oeste 0 -- -- 39
2018-03-26 15:00:00 15.6 4 Norte 14 Norte 0 -- -- 43
2018-03-26 14:00:00 14.9 3 Oeste 11 Norte 0 -- -- 50
2018-03-26 13:00:00 13.6 3 Noroeste 10 Sudoeste 0 -- -- 50
2018-03-26 12:00:00 11.3 5 Sudoeste 9 Sur 0 -- -- 70
2018-03-26 11:00:00 7.6 0 Calma 6 Sudoeste 0 -- -- 80
2018-03-26 10:00:00 5.3 2 Sudoeste 6 Sur 0 -- -- 88
2018-03-26 09:00:00 4.5 0 Calma 5 Nordeste 0 -- -- 83
2018-03-26 08:00:00 4.5 0 Calma 4 Norte 0 -- -- 83
2018-03-26 07:00:00 4.8 0 Calma 5 Nordeste 0 -- -- 82
2018-03-26 06:00:00 5.1 0 Calma 4 Nordeste 0 -- -- 81
2018-03-26 05:00:00 5.6 0 Calma 4 Noroeste 0 -- -- 80
2018-03-26 04:00:00 6.1 0 Calma 8 Nordeste 0 -- -- 78
2018-03-26 03:00:00 6.8 0 Calma 6 Norte 0 -- -- 76
2018-03-26 02:00:00 7.1 0 Calma 4 Norte 0 -- -- 75
2018-03-26 01:00:00 8 0 Calma 7 Noroeste 0 -- -- 71
2018-03-26 00:00:00 8.3 0 Calma 6 Oeste 0 -- -- 71
2018-03-25 23:00:00 8.7 0 Calma 4 Oeste 0 -- -- 67
2018-03-25 22:00:00 9.7 0 Calma 5 Noroeste 0 -- -- 64
2018-03-25 21:00:00 10.6 3 Noroeste 17 Noroeste 0 -- -- 62
2018-03-25 20:00:00 12 8 Noroeste 20 Noroeste 0 -- -- 57
2018-03-25 19:00:00 12.7 6 Noroeste 24 Noroeste 0 -- -- 54
2018-03-25 18:00:00 12.5 6 Noroeste 21 Oeste 0.2 -- -- 58
2018-03-25 17:00:00 12.3 7 Oeste 25 Noroeste 0 -- -- 69
2018-03-25 16:00:00 11.7 6 Noroeste 19 Noroeste 0 -- -- 64
2018-03-25 15:00:00 10.2 6 Noroeste 16 Noroeste 0 -- -- 83
2018-03-25 14:00:00 8.9 3 Noroeste 14 Noroeste 0 -- -- 83
2018-03-25 13:00:00 7.9 2 Nordeste 6 Nordeste 0 -- -- 88
2018-03-25 12:00:00 6.4 0 Calma 4 Nordeste 0.2 -- -- 92
2018-03-25 11:00:00 5.6 0 Calma 6 Sur 0.2 -- -- 95
2018-03-25 10:00:00 5.2 4 Sur 10 Sudoeste 0 -- -- 99
2018-03-25 09:00:00 4.8 2 Sur 14 Sur 0.2 -- -- 98
2018-03-25 08:00:00 4.8 6 Sudoeste 15 Sudoeste 0.4 -- -- 98
2018-03-25 07:00:00 5 3 Oeste 15 Oeste 1.4 -- -- 95
2018-03-25 06:00:00 5.2 4 Oeste 22 Oeste 0.6 -- -- 93
2018-03-25 05:00:00 5.7 5 Oeste 27 Oeste 0 -- -- 82
2018-03-25 03:00:00 6.4 10 Oeste 28 Oeste 0 -- -- 81
2018-03-25 01:00:00 7 16 Noroeste 35 Noroeste 0 -- -- 76
2018-03-25 00:00:00 7.2 10 Noroeste 37 Oeste 0 -- -- 77
2018-03-24 23:00:00 7.6 18 Noroeste 47 Noroeste 0 -- -- 73
2018-03-24 22:00:00 8.2 17 Noroeste 54 Noroeste 0 -- -- 73
2018-03-24 21:00:00 9 19 Noroeste 36 Oeste 0 -- -- 64
2018-03-24 20:00:00 9.1 17 Oeste 46 Noroeste 0 -- -- 61
2018-03-24 19:00:00 10.6 19 Noroeste 45 Noroeste 0 -- -- 49
2018-03-24 18:00:00 10.9 12 Noroeste 42 Oeste 0 -- -- 52
2018-03-24 17:00:00 11.9 19 Noroeste 54 Noroeste 0 -- -- 47
2018-03-24 16:00:00 12.1 13 Noroeste 48 Noroeste 0 -- -- 49
2018-03-24 15:00:00 11.3 22 Noroeste 51 Oeste 0 -- -- 52
2018-03-24 14:00:00 10.4 19 Noroeste 52 Noroeste 0 -- -- 58
2018-03-24 13:00:00 9.2 15 Noroeste 52 Oeste 0 -- -- 61
2018-03-24 12:00:00 8.1 14 Noroeste 40 Noroeste 0 -- -- 71
2018-03-24 11:00:00 6.6 11 Noroeste 44 Norte 0 -- -- 76
2018-03-24 10:00:00 5.9 10 Noroeste 31 Oeste 0 -- -- 83
2018-03-24 09:00:00 4.6 14 Noroeste 35 Oeste 0 -- -- 89
2018-03-24 08:00:00 4.3 13 Noroeste 37 Oeste 0 -- -- 90
2018-03-24 07:00:00 4.3 10 Noroeste 41 Noroeste 0 -- -- 92
2018-03-24 06:00:00 4.8 9 Noroeste 29 Oeste 0 -- -- 91
2018-03-24 05:00:00 5.4 10 Noroeste 35 Noroeste 0 -- -- 93
2018-03-24 04:00:00 6.2 17 Noroeste 37 Noroeste 0 -- -- 87
2018-03-24 03:00:00 7.6 7 Noroeste 61 Oeste 0.8 -- -- 94
2018-03-24 02:00:00 9.5 12 Oeste 54 Oeste 1.2 -- -- 99
2018-03-24 01:00:00 9.3 18 Sudoeste 46 Sudoeste 1 -- -- 96
2018-03-24 00:00:00 10.3 12 Oeste 58 Oeste 0 -- -- 87
2018-03-23 23:00:00 10.5 20 Oeste 40 Oeste 0.4 -- -- 93
2018-03-23 22:00:00 10.4 9 Sudoeste 28 Sudoeste 0 -- -- 98
2018-03-23 21:00:00 10.1 9 Oeste 33 Sudoeste 0 -- -- 99
2018-03-23 20:00:00 9.7 8 Sudoeste 49 Sudoeste 0.6 -- -- 100
2018-03-23 19:00:00 9.5 21 Sudoeste 41 Sudoeste 0.6 -- -- 100
2018-03-23 18:00:00 10 19 Sudoeste 38 Sur 1.2 -- -- 99
2018-03-23 17:00:00 9.5 6 Sudoeste 24 Sudoeste 2.4 -- -- 99
2018-03-23 16:00:00 8.9 10 Sudoeste 29 Sudoeste 1 -- -- 99
2018-03-23 15:00:00 8.9 10 Sudoeste 29 Sudoeste 0 -- -- 98
2018-03-23 14:00:00 9.3 6 Oeste 20 Sudoeste 0 -- -- 89
2018-03-23 13:00:00 10.1 4 Oeste 19 Sudoeste 0 -- -- 72
2018-03-23 12:00:00 8.6 10 Oeste 21 Oeste 0 -- -- 77
2018-03-23 11:00:00 7.3 7 Sudoeste 13 Oeste 0 -- -- 83
2018-03-23 10:00:00 6.2 5 Oeste 13 Oeste 0 -- -- 85
2018-03-23 09:00:00 4.4 5 Noroeste 15 Oeste 0 -- -- 92
2018-03-23 08:00:00 4 3 Noroeste 12 Oeste 0 -- -- 94
2018-03-23 07:00:00 3.9 4 Oeste 15 Noroeste 0 -- -- 93
2018-03-23 06:00:00 4.4 10 Noroeste 22 Oeste 0 -- -- 90
2018-03-23 05:00:00 5.1 3 Oeste 10 Oeste 0 -- -- 86
2018-03-23 04:00:00 5.7 2 Noroeste 8 Oeste 0 -- -- 85
2018-03-23 03:00:00 6.3 3 Noroeste 10 Oeste 0 -- -- 81
2018-03-23 02:00:00 6.9 0 Calma 6 Oeste 0 -- -- 67
2018-03-23 01:00:00 7.3 0 Calma 7 Oeste 0 -- -- 57
2018-03-23 00:00:00 7.7 2 Noroeste 7 Sudoeste 0 -- -- 53